createdAt,value
2022-10-29T00:00:15.982Z,0
2022-10-29T00:05:16.032Z,0
2022-10-29T00:10:15.987Z,0
2022-10-29T00:15:16.335Z,0
2022-10-29T00:26:51.655Z,0
2022-10-29T00:30:20.321Z,0
2022-10-29T00:36:00.862Z,0
2022-10-29T00:40:18.164Z,0
2022-10-29T00:45:16.215Z,0
2022-10-29T00:50:16.015Z,0
2022-10-29T00:55:16.058Z,0
2022-10-29T01:00:15.968Z,0
2022-10-29T01:05:43.413Z,0
2022-10-29T01:10:16.050Z,0
2022-10-29T01:15:16.009Z,0
2022-10-29T01:20:16.487Z,0
2022-10-29T01:25:15.980Z,0
2022-10-29T01:30:16.060Z,0
2022-10-29T01:35:16.068Z,0
2022-10-29T01:40:16.016Z,0
2022-10-29T01:45:16.013Z,0
2022-10-29T01:50:16.072Z,0
2022-10-29T01:55:16.007Z,0
2022-10-29T02:00:16.050Z,0
2022-10-29T02:05:16.070Z,0
2022-10-29T02:10:16.023Z,0
2022-10-29T02:15:15.985Z,0
2022-10-29T02:20:16.347Z,0
2022-10-29T02:25:16.039Z,0
2022-10-29T02:30:15.997Z,0
2022-10-29T02:35:16.046Z,0
2022-10-29T02:40:16.142Z,0
2022-10-29T02:45:16.931Z,0
2022-10-29T02:50:16.100Z,0
2022-10-29T02:55:17.186Z,0
2022-10-29T03:00:16.186Z,0
2022-10-29T03:05:16.125Z,0
2022-10-29T03:10:15.999Z,0
2022-10-29T03:15:16.056Z,0
2022-10-29T03:20:16.693Z,0
2022-10-29T03:25:16.073Z,0
2022-10-29T03:30:15.988Z,0
2022-10-29T03:35:16.036Z,0
2022-10-29T03:40:16.058Z,0
2022-10-29T03:45:16.032Z,0
2022-10-29T03:50:16.075Z,0
2022-10-29T03:55:16.040Z,0
2022-10-29T04:00:16.053Z,0
2022-10-29T04:05:15.996Z,0
2022-10-29T04:10:15.989Z,0
2022-10-29T04:15:16.062Z,0
2022-10-29T04:21:05.886Z,0
2022-10-29T04:30:16.005Z,0
2022-10-29T04:35:16.049Z,0
2022-10-29T04:40:16.132Z,0
2022-10-29T04:45:16.140Z,0
2022-10-29T04:50:16.011Z,0
2022-10-29T04:55:16.089Z,0
2022-10-29T05:00:17.782Z,0
2022-10-29T05:05:16.102Z,0
2022-10-29T05:10:16.217Z,0
2022-10-29T05:15:16.031Z,0
2022-10-29T05:20:16.627Z,0
2022-10-29T05:25:16.069Z,0
2022-10-29T05:30:16.149Z,0
2022-10-29T05:35:16.035Z,0
2022-10-29T05:40:16.053Z,0
2022-10-29T05:45:16.046Z,0
2022-10-29T05:50:16.033Z,256
2022-10-29T05:55:16.135Z,257
2022-10-29T06:00:16.056Z,262
2022-10-29T06:05:16.058Z,265
2022-10-29T06:10:16.039Z,276
2022-10-29T06:15:16.019Z,288
2022-10-29T06:20:16.302Z,303
2022-10-29T06:25:16.125Z,321
2022-10-29T06:30:16.057Z,325
2022-10-29T06:35:16.051Z,326
2022-10-29T06:40:16.049Z,343
2022-10-29T06:45:16.032Z,365
2022-10-29T06:50:16.187Z,420
2022-10-29T06:55:16.040Z,466
2022-10-29T07:00:16.039Z,487
2022-10-29T07:05:16.089Z,486
2022-10-29T07:10:16.077Z,444
2022-10-29T07:15:16.160Z,488
2022-10-29T07:20:16.570Z,421
2022-10-29T07:25:16.212Z,426
2022-10-29T07:30:16.087Z,468
2022-10-29T07:35:16.075Z,638
2022-10-29T07:40:16.111Z,978
2022-10-29T07:45:16.054Z,1181
2022-10-29T07:50:16.056Z,936
2022-10-29T07:55:16.104Z,705
2022-10-29T08:00:16.110Z,864
2022-10-29T08:05:16.074Z,560
2022-10-29T08:10:16.564Z,505
2022-10-29T08:15:16.209Z,584
2022-10-29T08:20:20.620Z,942
2022-10-29T08:25:16.341Z,2341
2022-10-29T08:30:16.100Z,5451
2022-10-29T08:35:16.139Z,6287
2022-10-29T08:40:16.135Z,9493
2022-10-29T08:45:16.078Z,11192
2022-10-29T08:50:16.140Z,2262
2022-10-29T08:55:16.123Z,2672
2022-10-29T09:00:16.100Z,2610
2022-10-29T09:05:16.091Z,11996
2022-10-29T09:10:16.071Z,7189
2022-10-29T09:15:16.146Z,11179
2022-10-29T09:20:46.456Z,11545
2022-10-29T09:25:18.186Z,11706
2022-10-29T09:30:16.053Z,6669
2022-10-29T09:35:16.124Z,2010
2022-10-29T09:40:16.121Z,2214
2022-10-29T09:45:16.131Z,1752
2022-10-29T09:50:16.146Z,1336
2022-10-29T09:55:16.203Z,1248
2022-10-29T10:00:16.088Z,1221
2022-10-29T10:05:16.180Z,1188
2022-10-29T10:10:16.134Z,1185
2022-10-29T10:15:16.133Z,1198
2022-10-29T10:20:16.282Z,1061
2022-10-29T10:25:16.089Z,1112
2022-10-29T10:30:16.158Z,1004
2022-10-29T10:35:16.136Z,964
2022-10-29T10:40:16.179Z,918
2022-10-29T10:45:16.169Z,878
2022-10-29T10:50:16.302Z,779
2022-10-29T10:55:16.114Z,1016
2022-10-29T11:00:16.245Z,1018
2022-10-29T11:05:16.134Z,1055
2022-10-29T11:10:16.208Z,1055
2022-10-29T11:15:16.205Z,1123
2022-10-29T11:20:16.613Z,955
2022-10-29T11:25:16.205Z,837
2022-10-29T11:30:16.103Z,887
2022-10-29T11:35:16.121Z,732
2022-10-29T11:40:16.131Z,1030
2022-10-29T11:45:16.156Z,800
2022-10-29T11:50:16.138Z,745
2022-10-29T11:55:16.157Z,997
2022-10-29T12:00:16.215Z,1184
2022-10-29T12:05:16.133Z,1265
2022-10-29T12:10:16.142Z,1226
2022-10-29T12:15:16.067Z,1164
2022-10-29T12:25:16.158Z,1021
2022-10-29T12:30:16.119Z,791
2022-10-29T12:35:16.171Z,866
2022-10-29T12:40:16.175Z,806
2022-10-29T12:45:16.341Z,700
2022-10-29T12:50:16.256Z,712
2022-10-29T12:55:16.194Z,787
2022-10-29T13:00:16.392Z,808
2022-10-29T13:05:16.327Z,826
2022-10-29T13:10:16.187Z,839
2022-10-29T13:15:16.207Z,1056
2022-10-29T13:20:16.420Z,1041
2022-10-29T13:25:16.204Z,860
2022-10-29T13:30:16.145Z,814
2022-10-29T13:35:16.157Z,771
2022-10-29T13:40:20.195Z,788
2022-10-29T13:45:16.132Z,736
2022-10-29T13:50:16.201Z,729
2022-10-29T13:55:16.148Z,770
2022-10-29T14:00:16.211Z,699
2022-10-29T14:05:16.129Z,544
2022-10-29T14:10:16.273Z,511
2022-10-29T14:15:16.189Z,511
2022-10-29T14:20:16.306Z,488
2022-10-29T14:25:18.014Z,504
2022-10-29T14:30:16.190Z,514
2022-10-29T14:35:16.154Z,528
2022-10-29T14:40:16.131Z,502
2022-10-29T14:45:16.197Z,483
2022-10-29T14:50:16.170Z,454
2022-10-29T14:55:16.141Z,421
2022-10-29T15:00:16.201Z,401
2022-10-29T15:05:16.260Z,381
2022-10-29T15:10:16.201Z,363
2022-10-29T15:15:16.233Z,351
2022-10-29T15:20:16.389Z,336
2022-10-29T15:25:16.190Z,323
2022-10-29T15:30:16.229Z,312
2022-10-29T15:35:16.227Z,301
2022-10-29T15:40:16.179Z,290
2022-10-29T15:45:16.185Z,279
2022-10-29T15:50:16.190Z,268
2022-10-29T15:55:16.393Z,264
2022-10-29T16:00:16.190Z,260
2022-10-29T16:05:17.206Z,256
2022-10-29T16:10:17.217Z,0
2022-10-29T16:15:17.334Z,0
2022-10-29T16:20:17.422Z,0
2022-10-29T16:25:17.244Z,0
2022-10-29T16:30:17.368Z,0
2022-10-29T16:35:17.334Z,0
2022-10-29T16:40:17.448Z,0
2022-10-29T16:45:17.341Z,0
2022-10-29T16:50:17.478Z,0
2022-10-29T16:55:17.412Z,0
2022-10-29T17:00:17.325Z,0
2022-10-29T17:05:17.347Z,0
2022-10-29T17:10:17.207Z,0
2022-10-29T17:15:17.276Z,0
2022-10-29T17:20:28.544Z,0
2022-10-29T17:25:17.220Z,0
2022-10-29T17:30:17.354Z,0
2022-10-29T17:35:17.194Z,0
2022-10-29T17:40:17.214Z,0
2022-10-29T17:45:17.250Z,0
2022-10-29T17:50:17.283Z,0
2022-10-29T17:55:17.251Z,0
2022-10-29T18:00:19.311Z,0
2022-10-29T18:05:17.230Z,0
2022-10-29T18:10:17.320Z,0
2022-10-29T18:15:17.244Z,0
2022-10-29T18:20:17.568Z,0
2022-10-29T18:25:17.318Z,0
2022-10-29T18:30:17.213Z,0
2022-10-29T18:35:17.230Z,0
2022-10-29T18:40:17.268Z,0
2022-10-29T18:45:17.291Z,0
2022-10-29T18:50:17.303Z,0
2022-10-29T18:55:17.282Z,0
2022-10-29T19:00:17.277Z,0
2022-10-29T19:05:17.289Z,0
2022-10-29T19:10:17.249Z,0
2022-10-29T19:15:17.398Z,0
2022-10-29T19:20:17.574Z,0
2022-10-29T19:25:17.353Z,0
2022-10-29T19:30:17.464Z,0
2022-10-29T19:35:17.391Z,0
2022-10-29T19:40:17.294Z,0
2022-10-29T19:45:17.257Z,0
2022-10-29T19:50:17.342Z,0
2022-10-29T19:55:17.254Z,0
2022-10-29T20:00:17.699Z,0
2022-10-29T20:05:17.273Z,0
2022-10-29T20:10:17.279Z,0
2022-10-29T20:15:17.318Z,0
2022-10-29T20:20:23.074Z,0
2022-10-29T20:25:19.969Z,0
2022-10-29T20:30:17.335Z,0
2022-10-29T20:35:17.308Z,0
2022-10-29T20:40:17.291Z,0
2022-10-29T20:45:17.292Z,0
2022-10-29T20:50:17.335Z,0
2022-10-29T20:55:17.279Z,0
2022-10-29T21:00:17.246Z,0
2022-10-29T21:05:17.272Z,0
2022-10-29T21:10:17.282Z,0
2022-10-29T21:15:17.235Z,0
2022-10-29T21:20:17.550Z,0
2022-10-29T21:25:17.451Z,0
2022-10-29T21:30:17.327Z,0
2022-10-29T21:35:17.265Z,0
2022-10-29T21:40:17.311Z,0
2022-10-29T21:45:17.283Z,0
2022-10-29T21:50:17.288Z,0
2022-10-29T21:55:17.347Z,0
2022-10-29T22:00:17.612Z,0
2022-10-29T22:05:17.388Z,0
2022-10-29T22:10:17.436Z,0
2022-10-29T22:15:20.300Z,0
2022-10-29T22:20:25.477Z,0
2022-10-29T22:25:17.401Z,0
2022-10-29T22:30:17.376Z,0
2022-10-29T22:35:17.286Z,0
2022-10-29T22:40:17.341Z,0
2022-10-29T22:45:17.302Z,0
2022-10-29T22:50:17.469Z,0
2022-10-29T22:55:17.399Z,0
2022-10-29T23:00:17.366Z,0
2022-10-29T23:05:17.360Z,0
2022-10-29T23:10:17.364Z,0
2022-10-29T23:15:17.335Z,0
2022-10-29T23:20:17.651Z,0
2022-10-29T23:25:17.325Z,0
2022-10-29T23:30:17.340Z,0
2022-10-29T23:35:17.340Z,0
2022-10-29T23:40:17.330Z,0
2022-10-29T23:45:17.376Z,0
2022-10-29T23:50:17.321Z,0
2022-10-29T23:55:17.324Z,0
